Terminal Aerodrome Forecast
Issued by NWS

Home | Current Version | Previous Version | Text Only | Print | Product List | Glossary On
Versions: 1 2 3 4 5 6 7 8 9 10 11 12 13 14 15 16 17 18 19
000
FTUS43 KDLH 251100
TAFHYR
TAF
KHYR 251125Z 2512/2612 16005KT P6SM SCT025 BKN050
      TEMPO 2512/2515 6SM TSRA BR BKN035CB
     FM251500 18008KT P6SM VCSH SCT025 BKN040
     FM252000 20005KT P6SM BKN025 OVC040
      TEMPO 2520/2523 5SM TSRA BR OVC015CB
     FM260600 21006KT P6SM SCT015=

USA.gov is the U.S. government's official web portal to all federal, state and local government web resources and services.